Wagoner, OK (74477)

4:34 AM CST on December 05, 2016 (GMT -0600)
Poindexter club | | Change Station
Active Advisory: Freezing Fog Advisory

Elev 620 ft 36.01 °N, 95.31 °W | Updated 10 minutes ago

Clear
Clear
33.3 °F
Feels Like 33 °F
N
0.0
Wind Variable Wind from South

Today
High -- | Low -- °F
--% Chance of Precip.
Yesterday
High -- | Low -- °F
Precip. -- in
Pressure 30.02 in
Visibility 7.0 miles
Clouds Clear
Windchill 33 °F
Dew Point 33 °F
Humidity 98%
Rainfall 0.00 in
Snow Depth Not available.
7:17 AM 5:06 PM
Waxing Crescent, 30% visible
METAR KTQH 051015Z AUTO 00000KT 7SM CLR M01/M01 A3002 RMK AO2
Pressure 30.02 in
Visibility 7.0 miles
Clouds Clear
Windchill 33 °F
Dew Point 33 °F
Humidity 98%
Rainfall 0.00 in
Snow Depth Not available.
7:17 AM 5:06 PM
Waxing Crescent, 30% visible
METAR KTQH 051015Z AUTO 00000KT 7SM CLR M01/M01 A3002 RMK AO2

10-Day Weather Forecast

Almanac

Astronomy

Dec. 05, 2016 Rise Set
Actual Time
Civil Twilight
Nautical Twilight
Astronomical Twilight
Moon
Length of Visible Light
Length of Day
Tomorrow will be .
, % of the Moon is Illuminated

Today's Extremes

State Highs State Lows

Community

WunderPhotos

Upload Photos

1,955,777 photos uploaded!

WunderBlog® & News

Nearby

Air Quality

  Air Quality AQ Index Pollutant
Not available.

Snow Depth

Station Depth Elevation

Earthquake Activity

City Distance Mag. Time & Date
Minimum magnitude displayed is 2.5.

Coastal Water Temperatures

Place Temperature

Stations

Nearby Weather Stations

Station Location Temp. Windchill Dew Point Humidity Wind Precip. Elev Updated Type
                   

Watches & Warnings

Freezing Fog Advisory
Issued: 3:46 AM CST Dec. 5, 2016 – National Weather Service

... Freezing fog advisory remains in effect until 8 am CST this
morning...

* affected area... in Arkansas... Benton... Carroll... Washington...
and Madison counties. In Oklahoma... Rogers... Mayes...
Delaware... Wagoner... Cherokee... Adair... and Muskogee
counties.

* Timing... ongoing with freezing fog lifting by mid morning.

* Visibility... reduced to a quarter mile in spots.

* Impacts... visibilities could be reduced to less than one
quarter mile and a light glaze may form on bridges...
especially over the larger lakes.

Precautionary/preparedness actions...

If driving, slow down, use your headlights, and leave plenty of
distance ahead of you. Motorists should exercise caution and be
prepared for slick spots.